Copeland, Alabama
Current Conditions -  °F | °C
As of 5:58 AM on Friday 31 Oct 2014 (Local Time) from KMEI Reporting Station
Broken Clouds Broken Clouds  
Wind Chill: 40°   Ceiling: 7500
Heat Index: 40°   Visibility: 10mi
Dew Point: 39°   Wind: 3mph
Humidity: 97%   Direction: 190°S
Pressure: 30"   Gusts: NA
Location:  31.6272°N, 88.354°W
Report Text: KMEI 311058Z 19003KT 10SM BKN075 04/04 A3000 RMK AO2 SLP158 T00440039
Loading
Personal Weather Stations






























Interactive Weather Map
Tropical Storm Tracking
New forecast layout! Learn more

10-Day Weather Forecast

Advertisements
Track Severe Weather on mobile